Dillon, Canada
Current Conditions -  °F | °C
As of 6:00 PM on Monday 24 Nov 2014 (Local Time) from CYVT Reporting Station
Light Snow Light Snow  
Wind Chill: -2°   Ceiling: 8000
Heat Index:   Visibility: 15mi
Dew Point:   Wind: 5mph
Humidity: 79%   Direction: 10°N
Pressure: 29.97"   Gusts: NA
Location:  55.93°N, 108.94°W
Report Text: CYVT 250000Z 01004KT 15SM -SN SCT030 OVC080 M14/M17 A2997 RMK SC3AC5 PCPN VRY LGT PRESFR SLP188
Loading
Personal Weather Stations






























Interactive Weather Map New forecast layout! Learn more

10-Day Weather Forecast

Advertisements
Track Severe Weather on mobile